תחנות METAR סמוכות

 

LLBG - Ben-Gurion(Civ/M, Israel
Distance from station: 'מ 83km
עודכן: 01/02/2023 21:50
מעונן חלקית
מעונן חלקית
 רוח מ 'מ
רוח: 'מ 37 km/h, משב: 56 km/h
טמפרטורה: 14°C
נקודת הטל: 3°C
לחות: 48%
ברומטר: 1014 hPa
עננים: מעונן חלקית
ראות: 10 km
Cloud details: מעונן חלקית 1372 m
2023/02/01 19:50 LLBG 011950Z 27020G30KT 9999 SCT045 14/03 Q1014 NOSIG RMK SCT070
LLSD - Sde Dov Airport, Israel
Distance from station: 'מ 75km
עודכן: 30/06/2019 23:50
לא מעודכן
מעונן חלקית
מעונן חלקית
 רוח מ משתנה
רוח: משתנה 6 km/h
טמפרטורה: 27°C
עומס חום: 30°C
נקודת הטל: 23°C
לחות: 79%
ברומטר: 1007 hPa
עננים: מעונן חלקית
ראות: 10 km
Cloud details: מעונן חלקית 518 m
2019/06/30 20:50 LLSD 302050Z VRB03KT 9999 SCT017 27/23 Q1007
 
LLHA - Haifa (isr-Afb), Israel
Distance from station: 'צמ 129km
עודכן: 01/02/2023 19:50
לא מעודכן
Few Clouds
Few Clouds
 רוח מ 'מ
רוח: 'מ 39 km/h, משב: 70 km/h
טמפרטורה: 14°C
נקודת הטל: 4°C
לחות: 51%
ברומטר: 1011 hPa
עננים: Few Clouds
ראות: 9 km
Cloud details: Few Clouds 1463 m
2023/02/01 17:50 LLHA 011750Z 28021G38KT 9000 FEW048 14/04 Q1011 RMK BKN057
LLIB - Ben Ya Akov, Israel
Distance from station: 'צמ 183km
עודכן: 01/02/2023 17:50
לא מעודכן
בעיקר מעונן
בעיקר מעונן
 רוח מ 'מ
רוח: 'מ 30 km/h
טמפרטורה: 10°C
אפקט הרוח: 7°C
נקודת הטל: 5°C
לחות: 71%
ברומטר: 1009 hPa
עננים: בעיקר מעונן
ראות: 10 km
Cloud details: Few Clouds 914 m
בעיקר מעונן 1219 m
2023/02/01 15:50 LLIB 011550Z AUTO 27016KT 240V300 9999 FEW030 BKN040 10/05 Q1009 RMK RERA
 
LLOV - Ovda (isr-Afb/Ci, Israel
Distance from station: 'דדמ 246km
עודכן: 31/03/2019 22:50
לא מעודכן
בהיר
בהיר
 רוח מ 'מדמ
רוח: 'מדמ 13 km/h
טמפרטורה: 12°C
נקודת הטל: 0°C
לחות: 44%
ברומטר: 1012 hPa
סיכום: בהיר
ראות: greater than 10 km
2019/03/31 19:50 LLOV 311950Z 24007KT CAVOK 12/00 Q1012
LLET - Elat/J. Hozman(A, Israel
Distance from station: 'דדמ 287km
עודכן: 18/03/2019 17:50
לא מעודכן
בהיר
בהיר
 רוח מ 'צצמ
רוח: 'צצמ 30 km/h
טמפרטורה: 24°C
נקודת הטל: -1°C
לחות: 19%
ברומטר: 1016 hPa
סיכום: בהיר
ראות: greater than 10 km
2019/03/18 15:50 LLET 181550Z 02016KT CAVOK 24/M01 Q1016
 
LCLK - Larnaca/Larnax A, Cyprus
Distance from station: 'צ 321km
עודכן: 01/02/2023 22:00
בעיקר מעונן
בעיקר מעונן
 רוח מ 'מ
רוח: 'מ 7 km/h
טמפרטורה: 7°C
אפקט הרוח: 6°C
נקודת הטל: 4°C
לחות: 81%
ברומטר: 1010 hPa
עננים: בעיקר מעונן
ראות: 10 km
Cloud details: Few Clouds 762 m
בעיקר מעונן 2134 m
2023/02/01 20:00 LCLK 012000Z 28004KT 9999 FEW025 BKN070 07/04 Q1010 NOSIG